createdAt,value
2022-09-07T00:01:01.060Z,11.55
2022-09-07T00:03:27.921Z,10.37
2022-09-07T00:05:54.485Z,10.57
2022-09-07T00:08:23.262Z,10.05
2022-09-07T00:10:56.786Z,11.85
2022-09-07T00:13:24.798Z,9.73
2022-09-07T00:15:52.079Z,10.77
2022-09-07T00:18:19.390Z,9.40
2022-09-07T00:20:45.867Z,10.90
2022-09-07T00:23:12.814Z,10.13
2022-09-07T00:25:40.550Z,10.30
2022-09-07T00:28:08.578Z,11.83
2022-09-07T00:30:41.264Z,10.82
2022-09-07T00:33:07.778Z,11.10
2022-09-07T00:35:39.796Z,10.43
2022-09-07T00:38:06.317Z,11.45
2022-09-07T00:40:32.817Z,9.07
2022-09-07T00:42:59.275Z,9.73
2022-09-07T00:45:25.970Z,14.88
2022-09-07T00:47:59.280Z,12.35
2022-09-07T00:50:28.919Z,11.65
2022-09-07T00:53:04.946Z,14.60
2022-09-07T00:55:33.110Z,12.05
2022-09-07T00:58:00.241Z,13.32
2022-09-07T01:00:27.368Z,11.48
2022-09-07T01:02:56.639Z,11.32
2022-09-07T01:05:54.111Z,12.53
2022-09-07T01:08:21.322Z,11.98
2022-09-07T01:10:47.951Z,14.82
2022-09-07T01:13:15.185Z,10.18
2022-09-07T01:16:10.753Z,11.45
2022-09-07T01:18:47.216Z,9.93
2022-09-07T01:21:44.517Z,12.70
2022-09-07T01:24:29.418Z,11.52
2022-09-07T01:27:33.689Z,10.45
2022-09-07T01:30:05.878Z,12.52
2022-09-07T01:32:44.424Z,9.10
2022-09-07T01:35:20.318Z,9.60
2022-09-07T01:38:02.953Z,9.82
2022-09-07T01:40:40.015Z,11.88
2022-09-07T01:43:17.201Z,12.02
2022-09-07T01:45:45.797Z,11.27
2022-09-07T01:48:16.666Z,9.88
2022-09-07T01:51:01.574Z,9.48
2022-09-07T01:53:43.290Z,12.38
2022-09-07T01:56:14.715Z,10.73
2022-09-07T01:59:30.745Z,14.57
2022-09-07T02:02:11.388Z,10.57
2022-09-07T02:04:46.121Z,14.43
2022-09-07T02:07:20.365Z,15.65
2022-09-07T02:09:54.439Z,9.63
2022-09-07T02:12:26.837Z,11.23
2022-09-07T02:14:59.969Z,11.80
2022-09-07T02:17:34.361Z,11.30
2022-09-07T02:20:12.771Z,10.10
2022-09-07T02:22:44.300Z,11.20
2022-09-07T02:25:17.437Z,9.60
2022-09-07T02:27:48.326Z,9.52
2022-09-07T02:30:15.400Z,13.25
2022-09-07T02:32:42.069Z,10.98
2022-09-07T02:35:09.510Z,13.43
2022-09-07T02:37:37.846Z,10.93
2022-09-07T02:40:05.429Z,13.18
2022-09-07T02:42:34.265Z,11.70
2022-09-07T02:45:05.090Z,9.75
2022-09-07T02:47:45.175Z,10.63
2022-09-07T02:50:30.814Z,10.23
2022-09-07T02:53:29.365Z,11.18
2022-09-07T02:56:33.084Z,10.20
2022-09-07T02:59:17.982Z,12.32
2022-09-07T03:02:08.423Z,9.70
2022-09-07T03:05:19.838Z,13.90
2022-09-07T03:07:56.220Z,10.35
2022-09-07T03:10:23.249Z,15.25
2022-09-07T03:12:51.251Z,11.75
2022-09-07T03:15:21.210Z,9.93
2022-09-07T03:17:48.133Z,11.03
2022-09-07T03:20:16.477Z,12.70
2022-09-07T03:22:47.743Z,14.27
2022-09-07T03:25:15.374Z,9.90
2022-09-07T03:27:42.508Z,11.93
2022-09-07T03:30:10.843Z,9.70
2022-09-07T03:32:38.521Z,10.32
2022-09-07T03:35:06.626Z,11.93
2022-09-07T03:37:36.304Z,12.55
2022-09-07T03:40:04.643Z,12.02
2022-09-07T03:42:31.186Z,13.70
2022-09-07T03:44:57.650Z,12.70
2022-09-07T03:47:24.130Z,11.52
2022-09-07T03:49:51.764Z,11.80
2022-09-07T03:52:18.257Z,12.85
2022-09-07T03:54:44.874Z,13.07
2022-09-07T03:57:11.833Z,11.45
2022-09-07T03:59:38.285Z,12.20
2022-09-07T04:02:05.052Z,9.93
2022-09-07T04:04:31.647Z,12.20
2022-09-07T04:06:58.151Z,11.77
2022-09-07T04:09:24.656Z,10.27
2022-09-07T04:11:51.127Z,11.68
2022-09-07T04:14:17.918Z,15.70
2022-09-07T04:16:45.599Z,12.15
2022-09-07T04:19:12.143Z,11.90
2022-09-07T04:21:39.055Z,12.70
2022-09-07T04:24:05.835Z,14.20
2022-09-07T04:26:34.357Z,10.55
2022-09-07T04:29:04.106Z,15.00
2022-09-07T04:31:32.684Z,14.80
2022-09-07T04:33:59.298Z,12.77
2022-09-07T04:36:25.878Z,12.38
2022-09-07T04:38:57.395Z,11.25
2022-09-07T04:41:24.358Z,11.55
2022-09-07T04:43:56.614Z,10.30
2022-09-07T04:46:35.860Z,12.07
2022-09-07T04:49:08.582Z,11.32
2022-09-07T04:51:36.335Z,11.07
2022-09-07T04:54:04.071Z,12.05
2022-09-07T04:56:31.863Z,11.37
2022-09-07T04:59:00.650Z,14.45
2022-09-07T05:01:27.651Z,13.27
2022-09-07T05:03:54.200Z,11.60
2022-09-07T05:06:22.290Z,13.35
2022-09-07T05:08:51.534Z,12.50
2022-09-07T05:11:19.596Z,19.63
2022-09-07T05:13:46.163Z,16.25
2022-09-07T05:16:20.730Z,12.63
2022-09-07T05:19:01.682Z,14.40
2022-09-07T05:21:30.484Z,15.20
2022-09-07T05:23:58.924Z,16.50
2022-09-07T05:26:27.777Z,16.08
2022-09-07T05:31:41.430Z,15.70
2022-09-07T05:36:56.100Z,17.85
2022-09-07T05:39:23.013Z,16.98
2022-09-07T05:41:49.818Z,19.15
2022-09-07T05:47:02.826Z,17.93
2022-09-07T05:49:30.294Z,13.82
2022-09-07T05:51:56.832Z,11.98
2022-09-07T05:54:23.669Z,11.95
2022-09-07T05:56:50.132Z,13.43
2022-09-07T05:59:16.586Z,14.17
2022-09-07T06:01:43.103Z,11.63
2022-09-07T06:04:09.873Z,12.27
2022-09-07T06:06:38.710Z,12.32
2022-09-07T06:09:05.245Z,11.38
2022-09-07T06:11:31.738Z,14.10
2022-09-07T06:13:58.206Z,14.00
2022-09-07T06:16:24.825Z,11.95
2022-09-07T06:18:51.422Z,11.98
2022-09-07T06:21:20.537Z,13.63
2022-09-07T06:23:48.706Z,14.00
2022-09-07T06:26:16.821Z,11.95
2022-09-07T06:28:50.281Z,15.70
2022-09-07T06:31:20.410Z,14.25
2022-09-07T06:33:48.132Z,13.40
2022-09-07T06:36:17.077Z,12.60
2022-09-07T06:38:44.451Z,16.70
2022-09-07T06:44:04.650Z,14.68
2022-09-07T06:49:17.671Z,12.90
2022-09-07T06:51:44.467Z,14.82
2022-09-07T06:56:57.652Z,13.98
2022-09-07T06:59:24.203Z,12.18
2022-09-07T07:01:50.703Z,14.27
2022-09-07T07:04:17.170Z,13.75
2022-09-07T07:06:43.652Z,14.95
2022-09-07T07:09:13.755Z,11.85
2022-09-07T07:11:40.246Z,14.98
2022-09-07T07:14:06.783Z,15.20
2022-09-07T07:16:33.360Z,13.02
2022-09-07T07:18:59.895Z,12.65
2022-09-07T07:21:28.925Z,13.88
2022-09-07T07:24:05.022Z,12.88
2022-09-07T07:26:34.695Z,11.73
2022-09-07T07:29:03.969Z,13.30
2022-09-07T07:31:33.186Z,14.90
2022-09-07T07:33:59.905Z,10.60
2022-09-07T07:36:27.563Z,11.50
2022-09-07T07:38:58.863Z,12.60
2022-09-07T07:44:18.014Z,10.20
2022-09-07T07:46:48.614Z,10.88
2022-09-07T07:49:15.085Z,11.50
2022-09-07T07:54:27.902Z,9.93
2022-09-07T07:56:54.328Z,10.15
2022-09-07T07:59:20.745Z,10.70
2022-09-07T08:01:47.276Z,8.70
2022-09-07T08:04:13.877Z,9.43
2022-09-07T08:06:43.131Z,8.35
2022-09-07T08:09:10.977Z,9.45
2022-09-07T08:11:40.092Z,12.77
2022-09-07T08:14:08.603Z,9.43
2022-09-07T08:16:36.253Z,12.20
2022-09-07T08:19:03.391Z,8.90
2022-09-07T08:21:29.875Z,11.68
2022-09-07T08:23:57.560Z,19.08
2022-09-07T08:26:23.981Z,14.32
2022-09-07T08:28:50.386Z,9.73
2022-09-07T08:31:17.221Z,9.63
2022-09-07T08:33:44.430Z,9.63
2022-09-07T08:36:17.614Z,20.40
2022-09-07T08:38:44.747Z,37.80
2022-09-07T08:41:22.917Z,20.27
2022-09-07T08:43:59.634Z,10.02
2022-09-07T08:46:34.559Z,6.90
2022-09-07T08:49:03.243Z,8.10
2022-09-07T08:51:32.313Z,8.40
2022-09-07T08:53:59.046Z,6.20
2022-09-07T08:56:33.679Z,7.25
2022-09-07T08:59:06.593Z,7.80
2022-09-07T09:01:37.965Z,8.45
2022-09-07T09:04:17.332Z,7.28
2022-09-07T09:07:05.753Z,8.13
2022-09-07T09:09:53.930Z,8.40
2022-09-07T09:12:40.359Z,7.68
2022-09-07T09:15:21.513Z,7.95
2022-09-07T09:18:28.802Z,6.57
2022-09-07T09:20:57.015Z,5.90
2022-09-07T09:23:26.916Z,12.43
2022-09-07T09:25:55.979Z,10.13
2022-09-07T09:28:23.975Z,9.43
2022-09-07T09:30:51.998Z,9.73
2022-09-07T09:33:27.465Z,9.93
2022-09-07T09:36:00.004Z,7.72
2022-09-07T09:38:29.317Z,8.82
2022-09-07T09:40:58.181Z,8.23
2022-09-07T09:43:28.147Z,7.63
2022-09-07T09:46:12.976Z,8.27
2022-09-07T09:48:41.614Z,8.77
2022-09-07T09:54:06.288Z,8.88
2022-09-07T09:56:44.849Z,6.22
2022-09-07T10:05:22.840Z,8.27
2022-09-07T10:07:53.654Z,9.20
2022-09-07T10:10:20.445Z,9.18
2022-09-07T10:12:46.973Z,6.83
2022-09-07T10:15:30.003Z,8.38
2022-09-07T10:17:58.165Z,7.88
2022-09-07T10:20:33.620Z,7.88
2022-09-07T10:23:01.214Z,6.32
2022-09-07T10:25:32.363Z,7.93
2022-09-07T10:28:03.312Z,8.63
2022-09-07T10:30:41.312Z,9.55
2022-09-07T10:33:24.275Z,7.35
2022-09-07T10:36:15.540Z,8.23
2022-09-07T10:38:53.794Z,7.77
2022-09-07T10:41:31.431Z,8.80
2022-09-07T10:43:58.761Z,9.77
2022-09-07T10:47:03.691Z,8.50
2022-09-07T10:49:39.210Z,9.00
2022-09-07T10:52:32.657Z,6.03
2022-09-07T10:55:11.943Z,9.18
2022-09-07T10:57:49.213Z,5.47
2022-09-07T11:00:19.169Z,9.15
2022-09-07T11:03:26.165Z,9.05
2022-09-07T11:06:14.011Z,7.23
2022-09-07T11:12:03.141Z,9.02
2022-09-07T11:14:45.172Z,8.38
2022-09-07T11:17:18.895Z,9.10
2022-09-07T11:19:49.331Z,9.23
2022-09-07T11:22:43.327Z,8.15
2022-09-07T11:25:34.562Z,9.35
2022-09-07T11:28:09.000Z,8.15
2022-09-07T11:30:43.625Z,10.18
2022-09-07T11:33:21.848Z,7.83
2022-09-07T11:36:02.274Z,7.32
2022-09-07T11:38:41.747Z,7.60
2022-09-07T11:41:20.564Z,8.18
2022-09-07T11:43:55.010Z,8.00
2022-09-07T11:46:39.394Z,6.70
2022-09-07T11:49:12.757Z,8.73
2022-09-07T11:51:46.422Z,7.70
2022-09-07T11:54:48.457Z,12.48
2022-09-07T11:57:14.854Z,7.18
2022-09-07T11:59:57.655Z,8.87
2022-09-07T12:02:58.288Z,10.30
2022-09-07T12:05:41.604Z,8.38
2022-09-07T12:08:26.516Z,6.82
2022-09-07T12:11:24.327Z,7.35
2022-09-07T12:14:12.503Z,10.47
2022-09-07T12:17:03.838Z,6.63
2022-09-07T12:19:30.375Z,7.50
2022-09-07T12:21:59.344Z,9.20
2022-09-07T12:24:43.821Z,7.97
2022-09-07T12:27:20.383Z,6.17
2022-09-07T12:30:10.352Z,9.68
2022-09-07T12:32:57.374Z,6.65
2022-09-07T12:35:37.161Z,9.13
2022-09-07T12:38:24.671Z,9.63
2022-09-07T12:41:20.537Z,8.80
2022-09-07T12:43:49.922Z,7.05
2022-09-07T12:46:47.133Z,9.60
2022-09-07T12:49:50.490Z,9.65
2022-09-07T12:52:25.834Z,8.55
2022-09-07T12:55:23.534Z,8.27
2022-09-07T12:57:54.461Z,9.27
2022-09-07T13:00:24.062Z,8.85
2022-09-07T13:03:05.845Z,5.93
2022-09-07T13:05:51.600Z,7.78
2022-09-07T13:08:27.110Z,7.67
2022-09-07T13:10:53.662Z,7.65
2022-09-07T13:16:31.387Z,10.32
2022-09-07T13:19:01.893Z,6.63
2022-09-07T13:21:40.576Z,8.03
2022-09-07T13:27:05.415Z,6.85
2022-09-07T13:29:40.833Z,6.03
2022-09-07T13:33:07.943Z,8.93
2022-09-07T13:35:18.710Z,8.37
2022-09-07T13:37:54.380Z,7.35
2022-09-07T13:40:30.519Z,6.85
2022-09-07T13:42:58.591Z,8.65
2022-09-07T13:45:55.807Z,5.43
2022-09-07T13:48:34.271Z,6.37
2022-09-07T13:51:13.414Z,7.78
2022-09-07T13:54:19.129Z,9.65
2022-09-07T13:57:03.762Z,6.97
2022-09-07T13:59:35.068Z,6.57
2022-09-07T14:02:02.434Z,6.83
2022-09-07T14:04:41.583Z,8.75
2022-09-07T14:07:16.543Z,8.13
2022-09-07T14:09:42.942Z,6.85
2022-09-07T14:12:19.209Z,7.38
2022-09-07T14:14:46.806Z,6.20
2022-09-07T14:17:19.372Z,7.10
2022-09-07T14:19:51.477Z,6.97
2022-09-07T14:22:22.785Z,6.65
2022-09-07T14:24:52.956Z,7.70
2022-09-07T14:27:21.603Z,8.20
2022-09-07T14:29:48.043Z,7.13
2022-09-07T14:32:18.928Z,6.13
2022-09-07T14:34:46.532Z,8.50
2022-09-07T14:37:15.630Z,8.07
2022-09-07T14:39:46.046Z,8.00
2022-09-07T14:42:15.662Z,7.47
2022-09-07T14:44:45.344Z,9.65
2022-09-07T14:47:30.855Z,7.07
2022-09-07T14:50:05.806Z,6.18
2022-09-07T14:53:33.106Z,6.20
2022-09-07T14:55:34.685Z,7.93
2022-09-07T14:58:13.319Z,6.00
2022-09-07T15:00:46.020Z,7.53
2022-09-07T15:03:39.200Z,7.15
2022-09-07T15:06:06.961Z,6.37
2022-09-07T15:08:43.870Z,7.80
2022-09-07T15:11:34.364Z,4.88
2022-09-07T15:14:03.607Z,7.60
2022-09-07T15:16:33.481Z,6.88
2022-09-07T15:19:02.346Z,6.77
2022-09-07T15:21:34.001Z,9.00
2022-09-07T15:24:01.368Z,6.55
2022-09-07T15:29:24.452Z,7.28
2022-09-07T15:32:02.196Z,7.90
2022-09-07T15:34:30.809Z,7.70
2022-09-07T15:37:00.147Z,8.75
2022-09-07T15:39:29.956Z,6.53
2022-09-07T15:41:58.209Z,6.03
2022-09-07T15:44:28.321Z,6.77
2022-09-07T15:49:47.698Z,6.43
2022-09-07T15:52:16.752Z,6.07
2022-09-07T15:54:43.507Z,5.72
2022-09-07T15:59:56.510Z,5.65
2022-09-07T16:05:10.164Z,6.35
2022-09-07T16:10:23.173Z,7.53
2022-09-07T16:13:10.923Z,5.70
2022-09-07T16:15:45.277Z,5.80
2022-09-07T16:18:17.220Z,7.05
2022-09-07T16:20:44.794Z,7.00
2022-09-07T16:23:14.751Z,5.50
2022-09-07T16:25:43.414Z,5.28
2022-09-07T16:28:10.571Z,6.40
2022-09-07T16:30:40.908Z,5.78
2022-09-07T16:33:08.289Z,6.47
2022-09-07T16:35:34.939Z,4.87
2022-09-07T16:40:50.120Z,9.30
2022-09-07T16:43:16.916Z,5.30
2022-09-07T16:48:34.698Z,5.87
2022-09-07T16:51:02.952Z,5.85
2022-09-07T16:53:32.265Z,9.13
2022-09-07T16:56:16.954Z,8.52
2022-09-07T16:58:49.263Z,8.95
2022-09-07T17:01:18.775Z,9.20
2022-09-07T17:03:46.264Z,9.68
2022-09-07T17:06:14.667Z,8.23
2022-09-07T17:08:41.956Z,11.90
2022-09-07T17:11:16.478Z,6.57
2022-09-07T17:13:43.311Z,6.77
2022-09-07T17:16:14.157Z,7.65
2022-09-07T17:21:31.227Z,9.48
2022-09-07T17:23:59.460Z,8.27
2022-09-07T17:26:27.306Z,9.73
2022-09-07T17:28:59.569Z,6.93
2022-09-07T17:34:15.443Z,7.70
2022-09-07T17:36:42.731Z,8.73
2022-09-07T17:39:18.062Z,10.63
2022-09-07T17:41:46.652Z,9.88
2022-09-07T17:44:13.826Z,8.57
2022-09-07T17:46:40.409Z,8.75
2022-09-07T17:49:08.217Z,6.97
2022-09-07T17:51:36.090Z,8.40
2022-09-07T17:54:12.317Z,7.32
2022-09-07T17:56:40.125Z,10.02
2022-09-07T18:01:54.281Z,7.85
2022-09-07T18:04:21.409Z,7.83
2022-09-07T18:06:48.183Z,7.07
2022-09-07T18:09:14.734Z,7.97
2022-09-07T18:11:44.818Z,7.25
2022-09-07T18:14:14.187Z,7.47
2022-09-07T18:16:41.335Z,10.37
2022-09-07T18:19:08.628Z,7.30
2022-09-07T18:21:37.320Z,5.90
2022-09-07T18:24:07.651Z,10.80
2022-09-07T18:26:38.348Z,6.82
2022-09-07T18:29:12.972Z,7.50
2022-09-07T18:31:45.811Z,7.90
2022-09-07T18:34:12.431Z,9.05
2022-09-07T18:36:40.779Z,6.32
2022-09-07T18:39:10.054Z,7.85
2022-09-07T18:41:37.567Z,9.07
2022-09-07T18:44:04.203Z,8.05
2022-09-07T18:46:30.895Z,10.95
2022-09-07T18:48:58.222Z,7.53
2022-09-07T18:51:24.898Z,9.13
2022-09-07T18:53:51.353Z,8.80
2022-09-07T18:56:20.330Z,7.93
2022-09-07T18:58:47.724Z,7.93
2022-09-07T19:01:16.556Z,7.78
2022-09-07T19:03:44.240Z,7.97
2022-09-07T19:06:15.188Z,10.20
2022-09-07T19:08:43.543Z,9.00
2022-09-07T19:11:22.161Z,8.38
2022-09-07T19:13:48.616Z,8.40
2022-09-07T19:16:17.510Z,9.90
2022-09-07T19:18:52.730Z,8.10
2022-09-07T19:21:25.242Z,11.05
2022-09-07T19:23:59.470Z,10.23
2022-09-07T19:26:29.526Z,10.23
2022-09-07T19:28:58.050Z,15.07
2022-09-07T19:31:25.968Z,16.77
2022-09-07T19:34:00.095Z,15.15
2022-09-07T19:36:27.855Z,13.20
2022-09-07T19:38:54.471Z,13.18
2022-09-07T19:41:21.227Z,18.55
2022-09-07T19:43:48.397Z,14.50
2022-09-07T19:46:20.357Z,14.55
2022-09-07T19:48:49.278Z,16.50
2022-09-07T19:51:16.571Z,16.73
2022-09-07T19:53:47.111Z,12.32
2022-09-07T19:56:18.801Z,10.43
2022-09-07T19:58:45.922Z,11.20
2022-09-07T20:01:14.807Z,13.70
2022-09-07T20:03:42.670Z,17.02
2022-09-07T20:06:14.567Z,13.00
2022-09-07T20:08:42.752Z,10.37
2022-09-07T20:11:14.400Z,13.85
2022-09-07T20:13:41.611Z,12.15
2022-09-07T20:16:11.757Z,7.78
2022-09-07T20:18:39.183Z,7.55
2022-09-07T20:21:07.599Z,9.80
2022-09-07T20:23:35.166Z,11.27
2022-09-07T20:26:05.299Z,11.13
2022-09-07T20:28:32.058Z,11.18
2022-09-07T20:30:58.531Z,13.38
2022-09-07T20:33:24.968Z,8.07
2022-09-07T20:35:51.656Z,11.32
2022-09-07T20:38:20.644Z,9.45
2022-09-07T20:40:54.984Z,12.43
2022-09-07T20:43:22.027Z,10.10
2022-09-07T20:45:48.683Z,11.13
2022-09-07T20:48:15.569Z,9.55
2022-09-07T20:50:42.264Z,9.95
2022-09-07T20:53:08.837Z,9.98
2022-09-07T20:55:35.984Z,9.98
2022-09-07T20:58:03.076Z,10.97
2022-09-07T21:00:29.626Z,13.35
2022-09-07T21:02:56.305Z,10.05
2022-09-07T21:05:22.770Z,12.30
2022-09-07T21:07:49.318Z,13.38
2022-09-07T21:10:15.980Z,10.13
2022-09-07T21:12:42.398Z,9.80
2022-09-07T21:15:09.179Z,9.68
2022-09-07T21:17:35.598Z,10.95
2022-09-07T21:20:02.227Z,10.75
2022-09-07T21:22:28.625Z,8.80
2022-09-07T21:24:55.024Z,12.40
2022-09-07T21:27:21.483Z,8.38
2022-09-07T21:29:47.891Z,9.35
2022-09-07T21:32:14.329Z,8.73
2022-09-07T21:34:40.763Z,6.13
2022-09-07T21:37:07.166Z,10.02
2022-09-07T21:39:33.631Z,10.55
2022-09-07T21:42:00.125Z,11.85
2022-09-07T21:44:26.559Z,9.15
2022-09-07T21:46:53.003Z,9.47
2022-09-07T21:49:19.483Z,7.10
2022-09-07T21:51:45.865Z,6.80
2022-09-07T21:54:12.311Z,9.85
2022-09-07T21:56:41.079Z,11.57
2022-09-07T21:59:11.006Z,10.73
2022-09-07T22:01:37.680Z,8.75
2022-09-07T22:04:07.079Z,7.40
2022-09-07T22:06:34.430Z,8.13
2022-09-07T22:09:01.931Z,9.98
2022-09-07T22:11:29.552Z,9.00
2022-09-07T22:13:58.095Z,10.45
2022-09-07T22:16:25.330Z,8.52
2022-09-07T22:18:52.122Z,8.02
2022-09-07T22:21:26.903Z,7.50
2022-09-07T22:23:57.315Z,9.23
2022-09-07T22:26:26.545Z,6.90
2022-09-07T22:28:52.986Z,7.22
2022-09-07T22:31:24.791Z,10.57
2022-09-07T22:33:52.818Z,8.10
2022-09-07T22:36:31.059Z,10.43
2022-09-07T22:38:59.143Z,13.80
2022-09-07T22:41:38.192Z,7.10
2022-09-07T22:44:06.485Z,9.13
2022-09-07T22:46:37.451Z,9.52
2022-09-07T22:49:05.392Z,7.27
2022-09-07T22:51:31.920Z,8.43
2022-09-07T22:53:58.838Z,9.55
2022-09-07T22:56:31.304Z,11.52
2022-09-07T22:59:00.776Z,7.78
2022-09-07T23:01:28.917Z,9.90
2022-09-07T23:03:56.231Z,10.43
2022-09-07T23:06:28.435Z,7.72
2022-09-07T23:08:56.724Z,10.68
2022-09-07T23:11:24.643Z,8.68
2022-09-07T23:13:56.177Z,12.40
2022-09-07T23:16:23.021Z,10.85
2022-09-07T23:18:50.395Z,8.90
2022-09-07T23:21:17.141Z,10.25
2022-09-07T23:23:44.383Z,12.77
2022-09-07T23:26:10.818Z,12.30
2022-09-07T23:28:37.248Z,13.80
2022-09-07T23:31:03.948Z,11.13
2022-09-07T23:33:30.496Z,11.38
2022-09-07T23:36:01.803Z,9.20
2022-09-07T23:38:29.093Z,8.93
2022-09-07T23:40:58.280Z,8.88
2022-09-07T23:43:27.351Z,7.35
2022-09-07T23:45:54.169Z,8.02
2022-09-07T23:48:21.640Z,6.72
2022-09-07T23:50:48.880Z,6.57
2022-09-07T23:53:16.183Z,5.13
2022-09-07T23:55:42.843Z,5.25
2022-09-07T23:58:09.804Z,5.15
